sensor_id;sensor_type;location;lat;lon;timestamp;P1;durP1;ratioP1;P2;durP2;ratioP2
14849;SDS011;7517;48.400;11.770;2022-09-09T00:01:00;1.57;;;1.40;;
14849;SDS011;7517;48.400;11.770;2022-09-09T00:03:40;1.50;;;1.30;;
14849;SDS011;7517;48.400;11.770;2022-09-09T00:06:21;1.07;;;1.07;;
14849;SDS011;7517;48.400;11.770;2022-09-09T00:09:00;1.97;;;1.43;;
14849;SDS011;7517;48.400;11.770;2022-09-09T00:11:39;1.60;;;1.20;;
14849;SDS011;7517;48.400;11.770;2022-09-09T00:14:13;2.00;;;1.20;;
14849;SDS011;7517;48.400;11.770;2022-09-09T00:16:50;1.33;;;1.10;;
14849;SDS011;7517;48.400;11.770;2022-09-09T00:19:28;1.83;;;1.10;;
14849;SDS011;7517;48.400;11.770;2022-09-09T00:22:07;1.40;;;1.30;;
14849;SDS011;7517;48.400;11.770;2022-09-09T00:24:45;1.20;;;1.07;;
14849;SDS011;7517;48.400;11.770;2022-09-09T00:27:19;1.53;;;1.33;;
14849;SDS011;7517;48.400;11.770;2022-09-09T00:29:57;1.30;;;1.20;;
14849;SDS011;7517;48.400;11.770;2022-09-09T00:32:41;1.67;;;1.00;;
14849;SDS011;7517;48.400;11.770;2022-09-09T00:35:13;1.40;;;1.30;;
14849;SDS011;7517;48.400;11.770;2022-09-09T00:37:47;1.20;;;1.10;;
14849;SDS011;7517;48.400;11.770;2022-09-09T00:40:21;1.83;;;1.13;;
14849;SDS011;7517;48.400;11.770;2022-09-09T00:43:01;1.30;;;1.20;;
14849;SDS011;7517;48.400;11.770;2022-09-09T00:45:54;1.77;;;1.07;;
14849;SDS011;7517;48.400;11.770;2022-09-09T00:48:58;1.00;;;0.97;;
14849;SDS011;7517;48.400;11.770;2022-09-09T00:51:38;1.20;;;1.10;;
14849;SDS011;7517;48.400;11.770;2022-09-09T00:54:22;0.90;;;0.90;;
14849;SDS011;7517;48.400;11.770;2022-09-09T00:57:16;1.30;;;0.90;;
14849;SDS011;7517;48.400;11.770;2022-09-09T00:59:55;1.20;;;1.10;;
14849;SDS011;7517;48.400;11.770;2022-09-09T01:02:45;2.10;;;1.10;;
14849;SDS011;7517;48.400;11.770;2022-09-09T01:05:38;1.67;;;1.07;;
14849;SDS011;7517;48.400;11.770;2022-09-09T01:08:15;1.20;;;1.10;;
14849;SDS011;7517;48.400;11.770;2022-09-09T01:11:05;1.50;;;1.00;;
14849;SDS011;7517;48.400;11.770;2022-09-09T01:13:47;1.23;;;1.13;;
14849;SDS011;7517;48.400;11.770;2022-09-09T01:16:25;1.40;;;1.20;;
14849;SDS011;7517;48.400;11.770;2022-09-09T01:18:56;1.40;;;0.93;;
14849;SDS011;7517;48.400;11.770;2022-09-09T01:21:27;1.37;;;1.10;;
14849;SDS011;7517;48.400;11.770;2022-09-09T01:24:15;1.83;;;1.13;;
14849;SDS011;7517;48.400;11.770;2022-09-09T01:26:55;1.00;;;1.00;;
14849;SDS011;7517;48.400;11.770;2022-09-09T01:29:27;2.87;;;1.10;;
14849;SDS011;7517;48.400;11.770;2022-09-09T01:31:55;1.17;;;1.07;;
14849;SDS011;7517;48.400;11.770;2022-09-09T01:34:25;1.40;;;1.10;;
14849;SDS011;7517;48.400;11.770;2022-09-09T01:36:57;1.13;;;1.03;;
14849;SDS011;7517;48.400;11.770;2022-09-09T01:39:29;1.10;;;1.00;;
14849;SDS011;7517;48.400;11.770;2022-09-09T01:41:59;1.20;;;1.10;;
14849;SDS011;7517;48.400;11.770;2022-09-09T01:44:27;0.90;;;0.90;;
14849;SDS011;7517;48.400;11.770;2022-09-09T01:46:56;0.93;;;0.93;;
14849;SDS011;7517;48.400;11.770;2022-09-09T01:49:23;1.00;;;0.90;;
14849;SDS011;7517;48.400;11.770;2022-09-09T01:51:51;1.10;;;1.00;;
14849;SDS011;7517;48.400;11.770;2022-09-09T01:54:21;1.30;;;1.20;;
14849;SDS011;7517;48.400;11.770;2022-09-09T01:56:55;4.80;;;1.40;;
14849;SDS011;7517;48.400;11.770;2022-09-09T01:59:48;0.90;;;0.90;;
14849;SDS011;7517;48.400;11.770;2022-09-09T02:02:30;3.80;;;1.23;;
14849;SDS011;7517;48.400;11.770;2022-09-09T02:05:08;3.20;;;1.13;;
14849;SDS011;7517;48.400;11.770;2022-09-09T02:07:51;1.27;;;0.93;;
14849;SDS011;7517;48.400;11.770;2022-09-09T02:10:28;1.63;;;1.00;;
14849;SDS011;7517;48.400;11.770;2022-09-09T02:13:04;1.03;;;0.90;;
14849;SDS011;7517;48.400;11.770;2022-09-09T02:15:39;0.77;;;0.77;;
14849;SDS011;7517;48.400;11.770;2022-09-09T02:18:13;1.53;;;0.90;;
14849;SDS011;7517;48.400;11.770;2022-09-09T02:20:50;1.00;;;0.90;;
14849;SDS011;7517;48.400;11.770;2022-09-09T02:23:19;1.77;;;0.87;;
14849;SDS011;7517;48.400;11.770;2022-09-09T02:25:47;3.03;;;1.00;;
14849;SDS011;7517;48.400;11.770;2022-09-09T02:28:19;0.97;;;0.97;;
14849;SDS011;7517;48.400;11.770;2022-09-09T02:30:51;2.00;;;1.10;;
14849;SDS011;7517;48.400;11.770;2022-09-09T02:33:20;1.53;;;0.90;;
14849;SDS011;7517;48.400;11.770;2022-09-09T02:35:51;2.43;;;0.83;;
14849;SDS011;7517;48.400;11.770;2022-09-09T02:38:27;0.93;;;0.80;;
14849;SDS011;7517;48.400;11.770;2022-09-09T02:41:00;1.73;;;1.17;;
14849;SDS011;7517;48.400;11.770;2022-09-09T02:43:31;1.77;;;1.10;;
14849;SDS011;7517;48.400;11.770;2022-09-09T02:46:05;1.27;;;0.97;;
14849;SDS011;7517;48.400;11.770;2022-09-09T02:48:56;1.17;;;0.80;;
14849;SDS011;7517;48.400;11.770;2022-09-09T02:51:30;1.27;;;1.17;;
14849;SDS011;7517;48.400;11.770;2022-09-09T02:54:08;1.37;;;1.13;;
14849;SDS011;7517;48.400;11.770;2022-09-09T02:56:47;1.43;;;0.90;;
14849;SDS011;7517;48.400;11.770;2022-09-09T02:59:20;0.80;;;0.80;;
14849;SDS011;7517;48.400;11.770;2022-09-09T03:01:49;1.00;;;1.00;;
14849;SDS011;7517;48.400;11.770;2022-09-09T03:04:16;1.57;;;1.07;;
14849;SDS011;7517;48.400;11.770;2022-09-09T03:06:43;1.27;;;0.97;;
14849;SDS011;7517;48.400;11.770;2022-09-09T03:09:10;1.57;;;0.87;;
14849;SDS011;7517;48.400;11.770;2022-09-09T03:11:37;0.87;;;0.80;;
14849;SDS011;7517;48.400;11.770;2022-09-09T03:14:04;0.90;;;0.90;;
14849;SDS011;7517;48.400;11.770;2022-09-09T03:16:33;0.97;;;0.83;;
14849;SDS011;7517;48.400;11.770;2022-09-09T03:19:00;1.57;;;0.87;;
14849;SDS011;7517;48.400;11.770;2022-09-09T03:21:27;1.10;;;1.03;;
14849;SDS011;7517;48.400;11.770;2022-09-09T03:23:54;1.10;;;1.00;;
14849;SDS011;7517;48.400;11.770;2022-09-09T03:26:22;1.27;;;1.17;;
14849;SDS011;7517;48.400;11.770;2022-09-09T03:28:49;1.77;;;1.23;;
14849;SDS011;7517;48.400;11.770;2022-09-09T03:31:17;2.83;;;1.20;;
14849;SDS011;7517;48.400;11.770;2022-09-09T03:33:46;0.93;;;0.90;;
14849;SDS011;7517;48.400;11.770;2022-09-09T03:36:13;1.37;;;1.27;;
14849;SDS011;7517;48.400;11.770;2022-09-09T03:38:41;1.00;;;0.93;;
14849;SDS011;7517;48.400;11.770;2022-09-09T03:41:08;0.80;;;0.80;;
14849;SDS011;7517;48.400;11.770;2022-09-09T03:43:35;0.90;;;0.90;;
14849;SDS011;7517;48.400;11.770;2022-09-09T03:46:02;1.43;;;1.20;;
14849;SDS011;7517;48.400;11.770;2022-09-09T03:48:30;1.20;;;0.97;;
14849;SDS011;7517;48.400;11.770;2022-09-09T03:50:58;1.47;;;1.37;;
14849;SDS011;7517;48.400;11.770;2022-09-09T03:53:26;1.20;;;1.10;;
14849;SDS011;7517;48.400;11.770;2022-09-09T03:55:54;1.67;;;1.00;;
14849;SDS011;7517;48.400;11.770;2022-09-09T03:58:25;1.27;;;1.17;;
14849;SDS011;7517;48.400;11.770;2022-09-09T04:00:54;1.10;;;0.97;;
14849;SDS011;7517;48.400;11.770;2022-09-09T04:03:22;1.77;;;1.10;;
14849;SDS011;7517;48.400;11.770;2022-09-09T04:05:50;0.90;;;0.90;;
14849;SDS011;7517;48.400;11.770;2022-09-09T04:08:19;1.63;;;0.90;;
14849;SDS011;7517;48.400;11.770;2022-09-09T04:10:48;1.23;;;1.13;;
14849;SDS011;7517;48.400;11.770;2022-09-09T04:13:16;1.00;;;1.00;;
14849;SDS011;7517;48.400;11.770;2022-09-09T04:15:48;1.73;;;1.03;;
14849;SDS011;7517;48.400;11.770;2022-09-09T04:18:17;1.00;;;1.00;;
14849;SDS011;7517;48.400;11.770;2022-09-09T04:20:45;1.30;;;1.10;;
14849;SDS011;7517;48.400;11.770;2022-09-09T04:23:13;1.00;;;0.90;;
14849;SDS011;7517;48.400;11.770;2022-09-09T04:25:44;0.80;;;0.80;;
14849;SDS011;7517;48.400;11.770;2022-09-09T04:28:12;1.27;;;1.20;;
14849;SDS011;7517;48.400;11.770;2022-09-09T04:30:39;1.10;;;1.00;;
14849;SDS011;7517;48.400;11.770;2022-09-09T04:33:06;0.70;;;0.70;;
14849;SDS011;7517;48.400;11.770;2022-09-09T04:35:34;2.00;;;1.00;;
14849;SDS011;7517;48.400;11.770;2022-09-09T04:38:02;1.00;;;1.00;;
14849;SDS011;7517;48.400;11.770;2022-09-09T04:40:32;1.10;;;1.00;;
14849;SDS011;7517;48.400;11.770;2022-09-09T04:43:01;2.57;;;0.93;;
14849;SDS011;7517;48.400;11.770;2022-09-09T04:45:29;1.00;;;0.90;;
14849;SDS011;7517;48.400;11.770;2022-09-09T04:47:57;0.90;;;0.90;;
14849;SDS011;7517;48.400;11.770;2022-09-09T04:50:24;1.13;;;0.80;;
14849;SDS011;7517;48.400;11.770;2022-09-09T04:52:51;1.77;;;0.90;;
14849;SDS011;7517;48.400;11.770;2022-09-09T04:55:18;1.30;;;1.00;;
14849;SDS011;7517;48.400;11.770;2022-09-09T04:57:45;1.00;;;1.00;;
14849;SDS011;7517;48.400;11.770;2022-09-09T05:00:15;0.93;;;0.93;;
14849;SDS011;7517;48.400;11.770;2022-09-09T05:02:44;0.80;;;0.80;;
14849;SDS011;7517;48.400;11.770;2022-09-09T05:05:12;1.13;;;0.83;;
14849;SDS011;7517;48.400;11.770;2022-09-09T05:07:40;1.00;;;0.90;;
14849;SDS011;7517;48.400;11.770;2022-09-09T05:10:07;0.90;;;0.90;;
14849;SDS011;7517;48.400;11.770;2022-09-09T05:12:35;1.10;;;1.00;;
14849;SDS011;7517;48.400;11.770;2022-09-09T05:15:03;0.97;;;0.90;;
14849;SDS011;7517;48.400;11.770;2022-09-09T05:17:33;1.53;;;0.90;;
14849;SDS011;7517;48.400;11.770;2022-09-09T05:20:00;0.80;;;0.80;;
14849;SDS011;7517;48.400;11.770;2022-09-09T05:22:29;1.13;;;0.90;;
14849;SDS011;7517;48.400;11.770;2022-09-09T05:24:56;1.20;;;0.90;;
14849;SDS011;7517;48.400;11.770;2022-09-09T05:27:23;1.80;;;1.00;;
14849;SDS011;7517;48.400;11.770;2022-09-09T05:29:50;1.13;;;1.07;;
14849;SDS011;7517;48.400;11.770;2022-09-09T05:32:17;1.93;;;1.13;;
14849;SDS011;7517;48.400;11.770;2022-09-09T05:34:46;2.83;;;1.00;;
14849;SDS011;7517;48.400;11.770;2022-09-09T05:37:13;1.23;;;1.20;;
14849;SDS011;7517;48.400;11.770;2022-09-09T05:39:41;2.17;;;1.10;;
14849;SDS011;7517;48.400;11.770;2022-09-09T05:42:08;1.43;;;1.00;;
14849;SDS011;7517;48.400;11.770;2022-09-09T05:44:36;1.47;;;1.00;;
14849;SDS011;7517;48.400;11.770;2022-09-09T05:47:03;0.90;;;0.90;;
14849;SDS011;7517;48.400;11.770;2022-09-09T05:49:30;0.70;;;0.70;;
14849;SDS011;7517;48.400;11.770;2022-09-09T05:51:59;1.60;;;0.80;;
14849;SDS011;7517;48.400;11.770;2022-09-09T05:54:29;1.00;;;0.70;;
14849;SDS011;7517;48.400;11.770;2022-09-09T05:56:57;2.17;;;0.83;;
14849;SDS011;7517;48.400;11.770;2022-09-09T05:59:24;4.10;;;1.20;;
14849;SDS011;7517;48.400;11.770;2022-09-09T06:01:52;1.40;;;1.30;;
14849;SDS011;7517;48.400;11.770;2022-09-09T06:04:19;0.90;;;0.90;;
14849;SDS011;7517;48.400;11.770;2022-09-09T06:06:47;1.83;;;1.10;;
14849;SDS011;7517;48.400;11.770;2022-09-09T06:09:16;0.80;;;0.80;;
14849;SDS011;7517;48.400;11.770;2022-09-09T06:11:43;1.20;;;1.00;;
14849;SDS011;7517;48.400;11.770;2022-09-09T06:14:10;1.50;;;1.20;;
14849;SDS011;7517;48.400;11.770;2022-09-09T06:16:37;2.30;;;0.90;;
14849;SDS011;7517;48.400;11.770;2022-09-09T06:19:09;1.17;;;1.00;;
14849;SDS011;7517;48.400;11.770;2022-09-09T06:21:37;0.90;;;0.87;;
14849;SDS011;7517;48.400;11.770;2022-09-09T06:24:05;0.80;;;0.80;;
14849;SDS011;7517;48.400;11.770;2022-09-09T06:26:35;0.90;;;0.90;;
14849;SDS011;7517;48.400;11.770;2022-09-09T06:29:06;0.80;;;0.80;;
14849;SDS011;7517;48.400;11.770;2022-09-09T06:31:35;1.33;;;0.80;;
14849;SDS011;7517;48.400;11.770;2022-09-09T06:34:04;1.10;;;1.00;;
14849;SDS011;7517;48.400;11.770;2022-09-09T06:36:33;1.27;;;0.87;;
14849;SDS011;7517;48.400;11.770;2022-09-09T06:39:03;1.80;;;1.20;;
14849;SDS011;7517;48.400;11.770;2022-09-09T06:41:31;1.20;;;1.10;;
14849;SDS011;7517;48.400;11.770;2022-09-09T06:44:01;1.20;;;1.07;;
14849;SDS011;7517;48.400;11.770;2022-09-09T06:46:29;1.00;;;0.73;;
14849;SDS011;7517;48.400;11.770;2022-09-09T06:48:58;0.80;;;0.80;;
14849;SDS011;7517;48.400;11.770;2022-09-09T06:51:26;0.90;;;0.90;;
14849;SDS011;7517;48.400;11.770;2022-09-09T06:53:56;0.97;;;0.97;;
14849;SDS011;7517;48.400;11.770;2022-09-09T06:56:25;2.00;;;1.20;;
14849;SDS011;7517;48.400;11.770;2022-09-09T06:58:55;0.83;;;0.80;;
14849;SDS011;7517;48.400;11.770;2022-09-09T07:01:27;0.80;;;0.80;;
14849;SDS011;7517;48.400;11.770;2022-09-09T07:03:58;1.13;;;1.00;;
14849;SDS011;7517;48.400;11.770;2022-09-09T07:06:26;1.47;;;0.90;;
14849;SDS011;7517;48.400;11.770;2022-09-09T07:08:55;1.40;;;0.90;;
14849;SDS011;7517;48.400;11.770;2022-09-09T07:11:25;1.37;;;1.27;;
14849;SDS011;7517;48.400;11.770;2022-09-09T07:13:55;1.07;;;1.03;;
14849;SDS011;7517;48.400;11.770;2022-09-09T07:16:25;1.00;;;0.90;;
14849;SDS011;7517;48.400;11.770;2022-09-09T07:18:56;2.53;;;0.90;;
14849;SDS011;7517;48.400;11.770;2022-09-09T07:21:24;1.40;;;0.87;;
14849;SDS011;7517;48.400;11.770;2022-09-09T07:23:53;0.77;;;0.77;;
14849;SDS011;7517;48.400;11.770;2022-09-09T07:26:21;1.67;;;0.87;;
14849;SDS011;7517;48.400;11.770;2022-09-09T07:28:51;1.50;;;0.77;;
14849;SDS011;7517;48.400;11.770;2022-09-09T07:31:19;1.07;;;0.87;;
14849;SDS011;7517;48.400;11.770;2022-09-09T07:33:50;1.27;;;0.60;;
14849;SDS011;7517;48.400;11.770;2022-09-09T07:36:17;0.60;;;0.60;;
14849;SDS011;7517;48.400;11.770;2022-09-09T07:38:49;0.63;;;0.50;;
14849;SDS011;7517;48.400;11.770;2022-09-09T07:41:20;1.90;;;0.70;;
14849;SDS011;7517;48.400;11.770;2022-09-09T07:43:50;0.80;;;0.80;;
14849;SDS011;7517;48.400;11.770;2022-09-09T07:46:19;1.73;;;0.90;;
14849;SDS011;7517;48.400;11.770;2022-09-09T07:48:51;2.60;;;0.67;;
14849;SDS011;7517;48.400;11.770;2022-09-09T07:51:22;0.60;;;0.60;;
14849;SDS011;7517;48.400;11.770;2022-09-09T07:53:52;1.00;;;0.70;;
14849;SDS011;7517;48.400;11.770;2022-09-09T07:56:23;0.60;;;0.60;;
14849;SDS011;7517;48.400;11.770;2022-09-09T07:58:53;0.70;;;0.70;;
14849;SDS011;7517;48.400;11.770;2022-09-09T08:01:22;0.73;;;0.57;;
14849;SDS011;7517;48.400;11.770;2022-09-09T08:03:54;1.20;;;0.70;;
14849;SDS011;7517;48.400;11.770;2022-09-09T08:06:25;1.20;;;0.57;;
14849;SDS011;7517;48.400;11.770;2022-09-09T08:08:53;0.50;;;0.50;;
14849;SDS011;7517;48.400;11.770;2022-09-09T08:11:21;0.67;;;0.60;;
14849;SDS011;7517;48.400;11.770;2022-09-09T08:13:50;1.13;;;0.60;;
14849;SDS011;7517;48.400;11.770;2022-09-09T08:16:20;0.57;;;0.50;;
14849;SDS011;7517;48.400;11.770;2022-09-09T08:18:50;4.27;;;0.80;;
14849;SDS011;7517;48.400;11.770;2022-09-09T08:21:20;0.80;;;0.70;;
14849;SDS011;7517;48.400;11.770;2022-09-09T08:23:53;1.13;;;0.80;;
14849;SDS011;7517;48.400;11.770;2022-09-09T08:26:23;0.83;;;0.70;;
14849;SDS011;7517;48.400;11.770;2022-09-09T08:28:53;0.70;;;0.63;;
14849;SDS011;7517;48.400;11.770;2022-09-09T08:31:23;1.20;;;0.67;;
14849;SDS011;7517;48.400;11.770;2022-09-09T08:33:54;1.10;;;0.73;;
14849;SDS011;7517;48.400;11.770;2022-09-09T08:36:25;0.70;;;0.60;;
14849;SDS011;7517;48.400;11.770;2022-09-09T08:39:02;1.07;;;0.60;;
14849;SDS011;7517;48.400;11.770;2022-09-09T08:41:41;0.90;;;0.50;;
14849;SDS011;7517;48.400;11.770;2022-09-09T08:44:52;0.57;;;0.53;;
14849;SDS011;7517;48.400;11.770;2022-09-09T08:47:40;0.50;;;0.50;;
14849;SDS011;7517;48.400;11.770;2022-09-09T08:50:23;1.20;;;0.50;;
14849;SDS011;7517;48.400;11.770;2022-09-09T08:52:55;1.60;;;0.50;;
14849;SDS011;7517;48.400;11.770;2022-09-09T08:55:32;0.50;;;0.50;;
14849;SDS011;7517;48.400;11.770;2022-09-09T08:58:10;2.43;;;0.80;;
14849;SDS011;7517;48.400;11.770;2022-09-09T09:00:44;1.40;;;0.83;;
14849;SDS011;7517;48.400;11.770;2022-09-09T09:03:31;0.57;;;0.57;;
14849;SDS011;7517;48.400;11.770;2022-09-09T09:06:13;0.50;;;0.50;;
14849;SDS011;7517;48.400;11.770;2022-09-09T09:09:02;2.00;;;1.00;;
14849;SDS011;7517;48.400;11.770;2022-09-09T09:11:40;0.63;;;0.60;;
14849;SDS011;7517;48.400;11.770;2022-09-09T09:14:15;2.10;;;0.83;;
14849;SDS011;7517;48.400;11.770;2022-09-09T09:16:49;0.70;;;0.70;;
14849;SDS011;7517;48.400;11.770;2022-09-09T09:19:22;2.17;;;1.17;;
14849;SDS011;7517;48.400;11.770;2022-09-09T09:21:53;1.00;;;1.00;;
14849;SDS011;7517;48.400;11.770;2022-09-09T09:24:31;0.77;;;0.77;;
14849;SDS011;7517;48.400;11.770;2022-09-09T09:27:12;1.17;;;0.90;;
14849;SDS011;7517;48.400;11.770;2022-09-09T09:29:42;1.83;;;0.70;;
14849;SDS011;7517;48.400;11.770;2022-09-09T09:32:13;1.60;;;0.77;;
14849;SDS011;7517;48.400;11.770;2022-09-09T09:34:48;1.73;;;0.63;;
14849;SDS011;7517;48.400;11.770;2022-09-09T09:37:20;0.67;;;0.60;;
14849;SDS011;7517;48.400;11.770;2022-09-09T09:39:54;1.07;;;0.90;;
14849;SDS011;7517;48.400;11.770;2022-09-09T09:42:21;0.77;;;0.77;;
14849;SDS011;7517;48.400;11.770;2022-09-09T09:44:50;1.43;;;0.90;;
14849;SDS011;7517;48.400;11.770;2022-09-09T09:47:17;2.17;;;0.97;;
14849;SDS011;7517;48.400;11.770;2022-09-09T09:49:54;1.63;;;1.30;;
14849;SDS011;7517;48.400;11.770;2022-09-09T09:52:25;0.90;;;0.90;;
14849;SDS011;7517;48.400;11.770;2022-09-09T09:54:56;2.23;;;2.03;;
14849;SDS011;7517;48.400;11.770;2022-09-09T09:57:26;1.80;;;1.70;;
14849;SDS011;7517;48.400;11.770;2022-09-09T10:00:02;1.20;;;1.10;;
14849;SDS011;7517;48.400;11.770;2022-09-09T10:02:43;1.10;;;0.97;;
14849;SDS011;7517;48.400;11.770;2022-09-09T10:05:13;1.30;;;1.03;;
14849;SDS011;7517;48.400;11.770;2022-09-09T10:07:44;0.90;;;0.87;;
14849;SDS011;7517;48.400;11.770;2022-09-09T10:10:13;1.10;;;0.80;;
14849;SDS011;7517;48.400;11.770;2022-09-09T10:12:52;1.97;;;1.27;;
14849;SDS011;7517;48.400;11.770;2022-09-09T10:15:34;1.00;;;0.90;;
14849;SDS011;7517;48.400;11.770;2022-09-09T10:18:22;1.87;;;1.13;;
14849;SDS011;7517;48.400;11.770;2022-09-09T10:21:24;1.70;;;0.90;;
14849;SDS011;7517;48.400;11.770;2022-09-09T10:24:25;1.30;;;1.20;;
14849;SDS011;7517;48.400;11.770;2022-09-09T10:27:19;1.63;;;0.90;;
14849;SDS011;7517;48.400;11.770;2022-09-09T10:30:05;1.00;;;0.80;;
14849;SDS011;7517;48.400;11.770;2022-09-09T10:32:45;1.30;;;0.90;;
14849;SDS011;7517;48.400;11.770;2022-09-09T10:35:27;1.10;;;1.00;;
14849;SDS011;7517;48.400;11.770;2022-09-09T10:40:58;1.20;;;1.10;;
14849;SDS011;7517;48.400;11.770;2022-09-09T10:43:48;1.33;;;0.70;;
14849;SDS011;7517;48.400;11.770;2022-09-09T10:46:46;4.83;;;1.50;;
14849;SDS011;7517;48.400;11.770;2022-09-09T10:52:18;1.37;;;1.03;;
14849;SDS011;7517;48.400;11.770;2022-09-09T10:54:58;1.10;;;1.00;;
14849;SDS011;7517;48.400;11.770;2022-09-09T10:57:38;1.07;;;0.93;;
14849;SDS011;7517;48.400;11.770;2022-09-09T11:00:14;1.20;;;1.10;;
14849;SDS011;7517;48.400;11.770;2022-09-09T11:02:45;1.10;;;1.00;;
14849;SDS011;7517;48.400;11.770;2022-09-09T11:05:19;0.87;;;0.87;;
14849;SDS011;7517;48.400;11.770;2022-09-09T11:07:52;1.83;;;1.10;;
14849;SDS011;7517;48.400;11.770;2022-09-09T11:10:25;1.00;;;1.00;;
14849;SDS011;7517;48.400;11.770;2022-09-09T11:13:01;3.03;;;1.13;;
14849;SDS011;7517;48.400;11.770;2022-09-09T11:15:36;1.83;;;1.73;;
14849;SDS011;7517;48.400;11.770;2022-09-09T11:18:17;3.57;;;2.00;;
14849;SDS011;7517;48.400;11.770;2022-09-09T11:20:50;1.17;;;1.10;;
14849;SDS011;7517;48.400;11.770;2022-09-09T11:23:26;1.40;;;1.30;;
14849;SDS011;7517;48.400;11.770;2022-09-09T11:26:12;0.83;;;0.83;;
14849;SDS011;7517;48.400;11.770;2022-09-09T11:28:50;0.70;;;0.70;;
14849;SDS011;7517;48.400;11.770;2022-09-09T11:31:43;0.80;;;0.70;;
14849;SDS011;7517;48.400;11.770;2022-09-09T11:34:26;2.83;;;0.83;;
14849;SDS011;7517;48.400;11.770;2022-09-09T11:37:21;1.33;;;0.73;;
14849;SDS011;7517;48.400;11.770;2022-09-09T11:40:25;2.10;;;0.60;;
14849;SDS011;7517;48.400;11.770;2022-09-09T11:43:02;0.80;;;0.80;;
14849;SDS011;7517;48.400;11.770;2022-09-09T11:45:36;1.00;;;0.90;;
14849;SDS011;7517;48.400;11.770;2022-09-09T11:48:04;0.87;;;0.70;;
14849;SDS011;7517;48.400;11.770;2022-09-09T11:50:57;0.70;;;0.70;;
14849;SDS011;7517;48.400;11.770;2022-09-09T11:53:28;1.23;;;0.47;;
14849;SDS011;7517;48.400;11.770;2022-09-09T11:56:03;0.80;;;0.70;;
14849;SDS011;7517;48.400;11.770;2022-09-09T11:58:41;1.73;;;0.70;;
14849;SDS011;7517;48.400;11.770;2022-09-09T12:01:37;0.90;;;0.70;;
14849;SDS011;7517;48.400;11.770;2022-09-09T12:04:16;1.03;;;0.50;;
14849;SDS011;7517;48.400;11.770;2022-09-09T12:06:56;0.90;;;0.67;;
14849;SDS011;7517;48.400;11.770;2022-09-09T12:09:29;0.47;;;0.40;;
14849;SDS011;7517;48.400;11.770;2022-09-09T12:15:18;0.77;;;0.40;;
14849;SDS011;7517;48.400;11.770;2022-09-09T12:17:54;1.43;;;0.57;;
14849;SDS011;7517;48.400;11.770;2022-09-09T12:20:31;0.50;;;0.50;;
14849;SDS011;7517;48.400;11.770;2022-09-09T12:23:08;0.73;;;0.53;;
14849;SDS011;7517;48.400;11.770;2022-09-09T12:29:01;0.30;;;0.30;;
14849;SDS011;7517;48.400;11.770;2022-09-09T12:31:44;0.60;;;0.50;;
14849;SDS011;7517;48.400;11.770;2022-09-09T12:34:25;0.70;;;0.37;;
14849;SDS011;7517;48.400;11.770;2022-09-09T12:37:05;0.60;;;0.57;;
14849;SDS011;7517;48.400;11.770;2022-09-09T12:39:45;0.50;;;0.30;;
14849;SDS011;7517;48.400;11.770;2022-09-09T12:42:18;0.37;;;0.33;;
14849;SDS011;7517;48.400;11.770;2022-09-09T12:44:54;0.30;;;0.30;;
14849;SDS011;7517;48.400;11.770;2022-09-09T12:47:25;0.37;;;0.30;;
14849;SDS011;7517;48.400;11.770;2022-09-09T12:50:14;0.30;;;0.20;;
14849;SDS011;7517;48.400;11.770;2022-09-09T12:52:45;1.23;;;0.43;;
14849;SDS011;7517;48.400;11.770;2022-09-09T12:55:16;1.33;;;0.40;;
14849;SDS011;7517;48.400;11.770;2022-09-09T12:57:49;0.30;;;0.27;;
14849;SDS011;7517;48.400;11.770;2022-09-09T13:00:19;1.13;;;0.30;;
14849;SDS011;7517;48.400;11.770;2022-09-09T13:02:50;0.23;;;0.23;;
14849;SDS011;7517;48.400;11.770;2022-09-09T13:05:23;0.37;;;0.30;;
14849;SDS011;7517;48.400;11.770;2022-09-09T13:08:00;0.27;;;0.27;;
14849;SDS011;7517;48.400;11.770;2022-09-09T13:10:29;1.10;;;0.30;;
14849;SDS011;7517;48.400;11.770;2022-09-09T13:13:03;0.67;;;0.30;;
14849;SDS011;7517;48.400;11.770;2022-09-09T13:15:37;1.70;;;0.40;;
14849;SDS011;7517;48.400;11.770;2022-09-09T13:18:05;0.30;;;0.30;;
14849;SDS011;7517;48.400;11.770;2022-09-09T13:20:44;0.33;;;0.20;;
14849;SDS011;7517;48.400;11.770;2022-09-09T13:23:14;0.63;;;0.30;;
14849;SDS011;7517;48.400;11.770;2022-09-09T13:25:52;0.83;;;0.33;;
14849;SDS011;7517;48.400;11.770;2022-09-09T13:28:23;0.20;;;0.20;;
14849;SDS011;7517;48.400;11.770;2022-09-09T13:30:56;0.87;;;0.30;;
14849;SDS011;7517;48.400;11.770;2022-09-09T13:33:31;0.37;;;0.20;;
14849;SDS011;7517;48.400;11.770;2022-09-09T13:36:04;0.83;;;0.27;;
14849;SDS011;7517;48.400;11.770;2022-09-09T13:38:36;0.43;;;0.30;;
14849;SDS011;7517;48.400;11.770;2022-09-09T13:41:07;0.13;;;0.13;;
14849;SDS011;7517;48.400;11.770;2022-09-09T13:43:38;0.20;;;0.20;;
14849;SDS011;7517;48.400;11.770;2022-09-09T13:46:24;0.47;;;0.20;;
14849;SDS011;7517;48.400;11.770;2022-09-09T13:48:57;1.03;;;0.30;;
14849;SDS011;7517;48.400;11.770;2022-09-09T13:51:32;0.33;;;0.20;;
14849;SDS011;7517;48.400;11.770;2022-09-09T13:54:03;0.23;;;0.10;;
14849;SDS011;7517;48.400;11.770;2022-09-09T13:56:32;0.13;;;0.10;;
14849;SDS011;7517;48.400;11.770;2022-09-09T13:59:00;0.20;;;0.20;;
14849;SDS011;7517;48.400;11.770;2022-09-09T14:01:28;1.07;;;0.70;;
14849;SDS011;7517;48.400;11.770;2022-09-09T14:03:56;0.30;;;0.30;;
14849;SDS011;7517;48.400;11.770;2022-09-09T14:06:23;1.23;;;0.40;;
14849;SDS011;7517;48.400;11.770;2022-09-09T14:08:53;0.77;;;0.30;;
14849;SDS011;7517;48.400;11.770;2022-09-09T14:11:20;0.67;;;0.43;;
14849;SDS011;7517;48.400;11.770;2022-09-09T14:13:48;0.57;;;0.30;;
14849;SDS011;7517;48.400;11.770;2022-09-09T14:16:17;0.20;;;0.20;;
14849;SDS011;7517;48.400;11.770;2022-09-09T14:18:45;2.03;;;0.20;;
14849;SDS011;7517;48.400;11.770;2022-09-09T14:21:12;1.20;;;0.20;;
14849;SDS011;7517;48.400;11.770;2022-09-09T14:23:40;0.33;;;0.30;;
14849;SDS011;7517;48.400;11.770;2022-09-09T14:26:09;0.40;;;0.40;;
14849;SDS011;7517;48.400;11.770;2022-09-09T14:28:36;0.20;;;0.20;;
14849;SDS011;7517;48.400;11.770;2022-09-09T14:31:05;0.20;;;0.20;;
14849;SDS011;7517;48.400;11.770;2022-09-09T14:33:35;0.30;;;0.20;;
14849;SDS011;7517;48.400;11.770;2022-09-09T14:36:03;0.30;;;0.20;;
14849;SDS011;7517;48.400;11.770;2022-09-09T14:38:31;0.40;;;0.30;;
14849;SDS011;7517;48.400;11.770;2022-09-09T14:41:00;0.20;;;0.20;;
14849;SDS011;7517;48.400;11.770;2022-09-09T14:43:29;0.30;;;0.30;;
14849;SDS011;7517;48.400;11.770;2022-09-09T14:45:57;0.47;;;0.20;;
14849;SDS011;7517;48.400;11.770;2022-09-09T14:48:31;0.50;;;0.30;;
14849;SDS011;7517;48.400;11.770;2022-09-09T14:51:04;0.17;;;0.10;;
14849;SDS011;7517;48.400;11.770;2022-09-09T14:53:33;0.77;;;0.40;;
14849;SDS011;7517;48.400;11.770;2022-09-09T14:56:07;0.13;;;0.13;;
14849;SDS011;7517;48.400;11.770;2022-09-09T14:58:38;0.23;;;0.20;;
14849;SDS011;7517;48.400;11.770;2022-09-09T15:01:06;0.63;;;0.30;;
14849;SDS011;7517;48.400;11.770;2022-09-09T15:03:36;0.30;;;0.20;;
14849;SDS011;7517;48.400;11.770;2022-09-09T15:06:06;1.07;;;0.40;;
14849;SDS011;7517;48.400;11.770;2022-09-09T15:08:36;0.43;;;0.33;;
14849;SDS011;7517;48.400;11.770;2022-09-09T15:11:05;0.30;;;0.30;;
14849;SDS011;7517;48.400;11.770;2022-09-09T15:13:33;0.87;;;0.67;;
14849;SDS011;7517;48.400;11.770;2022-09-09T15:16:06;0.93;;;0.20;;
14849;SDS011;7517;48.400;11.770;2022-09-09T15:18:36;0.60;;;0.37;;
14849;SDS011;7517;48.400;11.770;2022-09-09T15:21:08;0.40;;;0.10;;
14849;SDS011;7517;48.400;11.770;2022-09-09T15:23:36;0.10;;;0.10;;
14849;SDS011;7517;48.400;11.770;2022-09-09T15:26:04;1.00;;;0.27;;
14849;SDS011;7517;48.400;11.770;2022-09-09T15:28:32;0.20;;;0.17;;
14849;SDS011;7517;48.400;11.770;2022-09-09T15:31:04;0.67;;;0.40;;
14849;SDS011;7517;48.400;11.770;2022-09-09T15:33:37;0.33;;;0.20;;
14849;SDS011;7517;48.400;11.770;2022-09-09T15:36:13;0.50;;;0.43;;